Time;durP1;ratioP1;P1;durP2;ratioP2;P2;SDS_P1;SDS_P2;PMS_P1;PMS_P2;Temp;Humidity;BMP_temperature;BMP_pressure;BME280_temperature;BME280_humidity;BME280_pressure;Samples;Min_cycle;Max_cycle;Signal;HPM_P1;HPM_P2
2022/03/11 00:02:16;;;;;;;0.70;0.68;;;5.80;80.50;;;;;;5123879;27;20092;-81
2022/03/11 00:04:41;;;;;;;1.05;0.45;;;5.80;80.70;;;;;;5098177;27;20044;-81
2022/03/11 00:07:08;;;;;;;2.35;0.43;;;5.80;80.50;;;;;;5099985;27;20035;-81
2022/03/11 00:09:34;;;;;;;2.03;0.45;;;5.80;80.70;;;;;;5105449;27;20023;-81
2022/03/11 00:11:59;;;;;;;1.38;0.68;;;5.70;80.60;;;;;;5120396;27;20499;-81
2022/03/11 00:14:25;;;;;;;0.45;0.45;;;5.70;81.00;;;;;;5118834;27;20031;-81
2022/03/11 00:16:51;;;;;;;0.93;0.57;;;5.70;80.70;;;;;;5113484;27;20112;-81
2022/03/11 00:19:16;;;;;;;0.65;0.35;;;5.70;80.80;;;;;;5143741;27;20366;-81
2022/03/11 00:21:42;;;;;;;3.08;1.10;;;5.60;80.20;;;;;;5098841;27;20047;-81
2022/03/11 00:24:08;;;;;;;1.00;0.68;;;5.60;80.20;;;;;;5148142;27;20031;-81
2022/03/11 00:26:34;;;;;;;0.65;0.65;;;5.60;80.30;;;;;;5116602;27;20030;-81
2022/03/11 00:29:00;;;;;;;0.30;0.30;;;5.60;80.80;;;;;;5111727;27;20042;-81
2022/03/11 00:31:28;;;;;;;3.13;0.68;;;5.60;81.00;;;;;;5116597;27;20053;-81
2022/03/11 00:33:54;;;;;;;0.30;0.30;;;5.50;80.80;;;;;;5117015;27;20256;-81
2022/03/11 00:36:19;;;;;;;0.50;0.50;;;5.50;80.80;;;;;;5123271;27;20037;-81
2022/03/11 00:38:45;;;;;;;0.80;0.70;;;5.50;81.60;;;;;;5125466;27;20039;-81
2022/03/11 00:41:11;;;;;;;0.35;0.30;;;5.50;80.80;;;;;;5119437;27;20334;-81
2022/03/11 00:43:37;;;;;;;1.48;0.80;;;5.50;81.50;;;;;;5128705;27;20027;-81
2022/03/11 00:46:02;;;;;;;1.88;0.82;;;5.50;81.60;;;;;;5115741;27;20066;-81
2022/03/11 00:48:28;;;;;;;0.17;0.15;;;5.40;81.30;;;;;;5106595;27;20050;-81
2022/03/11 00:50:54;;;;;;;2.38;0.85;;;5.40;81.90;;;;;;5112099;27;20067;-81
2022/03/11 00:53:20;;;;;;;0.68;0.43;;;5.40;81.80;;;;;;5115206;27;20035;-81
2022/03/11 00:55:45;;;;;;;1.20;0.40;;;5.40;81.60;;;;;;5116456;27;20081;-81
2022/03/11 00:58:11;;;;;;;3.20;1.25;;;5.30;82.30;;;;;;5120489;27;20538;-81
2022/03/11 01:00:37;;;;;;;1.85;0.85;;;5.30;83.10;;;;;;5118599;27;20039;-81
2022/03/11 01:03:02;;;;;;;0.73;0.20;;;5.30;83.00;;;;;;5106617;27;20027;-81
2022/03/11 01:05:28;;;;;;;0.40;0.10;;;5.20;83.30;;;;;;5106382;27;20035;-81
2022/03/11 01:07:53;;;;;;;0.43;0.40;;;5.20;84.00;;;;;;5122255;27;20042;-81
2022/03/11 01:10:20;;;;;;;1.33;0.55;;;5.20;84.40;;;;;;5124144;27;20119;-81
2022/03/11 01:12:45;;;;;;;0.77;0.65;;;5.10;84.70;;;;;;5107063;27;20556;-81
2022/03/11 01:15:11;;;;;;;0.43;0.40;;;5.10;85.00;;;;;;5094797;27;20039;-81
2022/03/11 01:17:37;;;;;;;0.98;0.80;;;5.00;86.10;;;;;;5108137;27;20510;-81
2022/03/11 01:20:05;;;;;;;0.75;0.50;;;5.00;86.20;;;;;;5138739;27;20041;-81
2022/03/11 01:22:31;;;;;;;0.98;0.30;;;4.90;86.70;;;;;;5124275;27;20039;-81
2022/03/11 01:24:57;;;;;;;1.00;0.50;;;4.90;87.20;;;;;;5123489;27;20032;-81
2022/03/11 01:27:23;;;;;;;1.20;0.65;;;4.90;87.30;;;;;;5122211;27;20028;-81
2022/03/11 01:29:48;;;;;;;3.13;0.70;;;4.90;88.40;;;;;;5120661;27;20039;-81
2022/03/11 01:32:14;;;;;;;0.65;0.10;;;4.80;88.80;;;;;;5121265;27;20035;-81
2022/03/11 01:34:40;;;;;;;4.60;0.80;;;4.80;89.00;;;;;;5120083;27;20046;-81
2022/03/11 01:37:05;;;;;;;1.10;0.52;;;4.80;89.20;;;;;;5121280;27;20066;-81
2022/03/11 01:39:31;;;;;;;0.70;0.17;;;4.70;89.80;;;;;;5128293;27;20035;-81
2022/03/11 01:41:57;;;;;;;0.98;0.43;;;4.70;89.90;;;;;;5113212;27;20051;-81
2022/03/11 01:44:28;;;;;;;0.88;0.50;;;4.70;90.00;;;;;;5099756;27;20039;-81
2022/03/11 01:46:54;;;;;;;0.95;0.55;;;4.70;90.20;;;;;;5121175;27;20034;-81
2022/03/11 01:49:20;;;;;;;0.73;0.65;;;4.70;90.40;;;;;;5162858;27;20400;-81
2022/03/11 01:51:46;;;;;;;1.55;0.70;;;4.70;90.40;;;;;;5118337;27;20038;-81
2022/03/11 01:54:12;;;;;;;0.43;0.15;;;4.60;90.60;;;;;;5127921;27;20073;-81
2022/03/11 01:56:39;;;;;;;0.10;0.10;;;4.60;90.40;;;;;;5142819;27;20043;-81
2022/03/11 01:59:05;;;;;;;0.65;0.43;;;4.60;90.80;;;;;;5114384;27;20030;-81
2022/03/11 02:01:31;;;;;;;0.20;0.20;;;4.60;90.80;;;;;;5125589;27;20480;-81
2022/03/11 02:03:57;;;;;;;0.55;0.40;;;4.60;91.00;;;;;;5105380;27;20069;-81
2022/03/11 02:06:23;;;;;;;2.20;0.90;;;4.50;91.30;;;;;;5108156;27;20031;-81
2022/03/11 02:08:50;;;;;;;3.92;1.73;;;4.50;91.50;;;;;;5122363;27;20130;-81
2022/03/11 02:11:16;;;;;;;0.40;0.30;;;4.50;91.60;;;;;;5144598;27;20023;-81
2022/03/11 02:13:50;;;;;;;0.98;0.82;;;4.50;91.80;;;;;;5145601;27;20548;-81
2022/03/11 02:16:18;;;;;;;0.32;0.30;;;4.50;91.90;;;;;;5116243;27;21060;-81
2022/03/11 02:18:44;;;;;;;0.45;0.30;;;4.50;91.80;;;;;;5099166;27;20045;-81
2022/03/11 02:21:10;;;;;;;0.52;0.47;;;4.40;91.90;;;;;;5145845;27;20081;-81
2022/03/11 02:23:57;;;;;;;2.08;0.75;;;4.40;91.80;;;;;;5131479;27;20384;-81
2022/03/11 02:26:25;;;;;;;0.45;0.45;;;4.40;92.50;;;;;;5127614;27;20027;-81
2022/03/11 02:28:52;;;;;;;3.08;0.80;;;4.40;92.40;;;;;;5103156;27;20049;-81
2022/03/11 02:31:19;;;;;;;0.52;0.30;;;4.40;92.40;;;;;;5142836;27;20384;-81
2022/03/11 02:33:45;;;;;;;0.93;0.55;;;4.40;92.60;;;;;;5140403;27;20046;-81
2022/03/11 02:36:10;;;;;;;0.25;0.25;;;4.40;92.50;;;;;;5108255;27;20031;-81
2022/03/11 02:38:37;;;;;;;1.40;0.73;;;4.40;92.40;;;;;;5136532;27;20039;-81
2022/03/11 02:41:03;;;;;;;0.73;0.57;;;4.30;92.70;;;;;;5105177;27;20051;-81
2022/03/11 02:43:29;;;;;;;1.75;0.55;;;4.30;92.80;;;;;;5117660;27;20040;-81
2022/03/11 02:45:55;;;;;;;1.23;0.80;;;4.30;92.90;;;;;;5108234;27;20038;-81
2022/03/11 02:48:20;;;;;;;0.32;0.25;;;4.30;92.80;;;;;;5095504;27;20084;-81
2022/03/11 02:50:47;;;;;;;0.22;0.22;;;4.30;93.00;;;;;;5122577;27;20062;-81
2022/03/11 02:53:13;;;;;;;0.80;0.45;;;4.30;93.20;;;;;;5148841;27;20031;-81
2022/03/11 02:55:38;;;;;;;1.45;0.20;;;4.30;93.30;;;;;;5111250;27;20318;-81
2022/03/11 02:58:04;;;;;;;1.10;0.57;;;4.30;93.20;;;;;;5121990;27;20133;-81
2022/03/11 03:00:29;;;;;;;0.85;0.55;;;4.30;93.60;;;;;;5118554;27;20077;-81
2022/03/11 03:02:55;;;;;;;5.88;1.10;;;4.30;93.70;;;;;;5121235;27;20063;-81
2022/03/11 03:05:21;;;;;;;2.05;0.82;;;4.30;93.60;;;;;;5097851;27;20047;-81
2022/03/11 03:07:46;;;;;;;0.77;0.45;;;4.30;93.50;;;;;;5127945;27;20118;-81
2022/03/11 03:10:12;;;;;;;3.40;1.17;;;4.30;93.50;;;;;;5110182;27;20027;-81
2022/03/11 03:12:38;;;;;;;0.57;0.47;;;4.30;93.40;;;;;;5116890;27;20084;-81
2022/03/11 03:15:05;;;;;;;0.52;0.45;;;4.30;93.70;;;;;;5117040;27;20638;-81
2022/03/11 03:17:31;;;;;;;1.17;0.40;;;4.30;93.40;;;;;;5155691;27;20039;-80
2022/03/11 03:19:56;;;;;;;0.32;0.28;;;4.30;93.60;;;;;;5090366;27;20038;-81
2022/03/11 03:22:22;;;;;;;1.05;0.60;;;4.30;93.40;;;;;;5121975;27;20043;-81
2022/03/11 03:24:48;;;;;;;0.28;0.25;;;4.30;93.70;;;;;;5121188;27;20042;-81
2022/03/11 03:27:14;;;;;;;1.45;0.52;;;4.20;93.60;;;;;;5115863;27;20569;-81
2022/03/11 03:29:39;;;;;;;1.10;0.80;;;4.30;93.70;;;;;;5120571;27;20039;-81
2022/03/11 03:32:05;;;;;;;0.65;0.65;;;4.20;93.70;;;;;;5106382;27;20046;-81
2022/03/11 03:34:33;;;;;;;0.40;0.25;;;4.20;93.80;;;;;;5121610;27;20122;-81
2022/03/11 03:37:01;;;;;;;2.13;1.40;;;4.20;93.70;;;;;;5099710;27;20127;-81
2022/03/11 03:39:27;;;;;;;0.65;0.57;;;4.20;93.80;;;;;;5117023;27;20035;-81
2022/03/11 03:41:54;;;;;;;0.75;0.65;;;4.20;93.90;;;;;;5092810;27;20404;-81
2022/03/11 03:44:20;;;;;;;0.95;0.40;;;4.20;93.70;;;;;;5116775;27;20057;-81
2022/03/11 03:46:46;;;;;;;0.77;0.70;;;4.20;93.80;;;;;;5124857;27;20467;-81
2022/03/11 03:49:11;;;;;;;1.80;0.85;;;4.20;94.20;;;;;;5104342;27;20114;-81
2022/03/11 03:51:38;;;;;;;0.90;0.88;;;4.20;94.20;;;;;;5100311;27;20153;-81
2022/03/11 03:54:04;;;;;;;1.10;0.88;;;4.10;94.10;;;;;;5112861;27;20369;-81
2022/03/11 03:56:30;;;;;;;1.17;0.98;;;4.10;94.20;;;;;;5121029;27;20396;-81
2022/03/11 03:58:56;;;;;;;6.10;1.38;;;4.10;94.20;;;;;;5123542;27;20035;-81
2022/03/11 04:01:21;;;;;;;1.13;0.45;;;4.10;94.00;;;;;;5100447;27;20160;-81
2022/03/11 04:03:47;;;;;;;0.43;0.22;;;4.00;94.40;;;;;;5116391;27;20541;-81
2022/03/11 04:06:12;;;;;;;0.75;0.70;;;4.00;94.40;;;;;;5095224;27;20503;-81
2022/03/11 04:08:38;;;;;;;2.58;0.93;;;4.00;94.40;;;;;;5116882;27;20476;-81
2022/03/11 04:11:03;;;;;;;2.92;0.93;;;3.90;94.60;;;;;;5110205;27;20428;-81
2022/03/11 04:13:29;;;;;;;1.02;0.73;;;3.90;94.90;;;;;;5105327;27;20058;-81
2022/03/11 04:15:55;;;;;;;1.98;1.20;;;3.90;94.80;;;;;;5118037;27;20035;-81
2022/03/11 04:18:21;;;;;;;0.90;0.40;;;3.90;94.80;;;;;;5096833;27;20039;-81
2022/03/11 04:20:46;;;;;;;5.38;1.15;;;3.80;94.90;;;;;;5101319;27;20031;-81
2022/03/11 04:23:12;;;;;;;0.77;0.43;;;3.80;95.20;;;;;;5113147;27;20131;-81
2022/03/11 04:25:38;;;;;;;2.38;0.30;;;3.80;95.40;;;;;;5095612;27;20063;-81
2022/03/11 04:28:04;;;;;;;2.00;0.47;;;3.80;95.50;;;;;;5103993;27;20042;-80
2022/03/11 04:30:30;;;;;;;0.40;0.40;;;3.80;95.50;;;;;;5128490;27;20035;-81
2022/03/11 04:32:55;;;;;;;0.90;0.40;;;3.70;95.50;;;;;;5125629;27;20040;-81
2022/03/11 04:35:21;;;;;;;1.02;0.65;;;3.70;95.40;;;;;;5105229;27;20195;-81
2022/03/11 04:37:47;;;;;;;2.45;1.20;;;3.70;95.40;;;;;;5109832;27;20039;-81
2022/03/11 04:40:12;;;;;;;0.65;0.60;;;3.70;95.50;;;;;;5145170;27;20086;-81
2022/03/11 04:42:38;;;;;;;1.42;0.80;;;3.70;95.60;;;;;;5127478;27;20163;-81
2022/03/11 04:45:04;;;;;;;1.60;1.05;;;3.70;95.50;;;;;;5125887;27;20027;-81
2022/03/11 04:47:30;;;;;;;2.00;1.20;;;3.70;95.50;;;;;;5128519;27;20174;-81
2022/03/11 04:49:56;;;;;;;1.48;1.23;;;3.70;95.60;;;;;;5125015;27;20392;-81
2022/03/11 04:52:22;;;;;;;2.58;1.65;;;3.70;95.50;;;;;;5131343;27;20042;-81
2022/03/11 04:54:47;;;;;;;0.57;0.32;;;3.70;95.60;;;;;;5122004;27;20395;-81
2022/03/11 04:57:13;;;;;;;2.38;0.93;;;3.60;95.40;;;;;;5123201;27;20043;-81
2022/03/11 04:59:39;;;;;;;1.27;1.17;;;3.60;95.60;;;;;;5105838;27;20511;-81
2022/03/11 05:02:04;;;;;;;0.77;0.40;;;3.60;95.40;;;;;;5119859;27;20039;-81
2022/03/11 05:04:30;;;;;;;2.05;1.42;;;3.60;95.30;;;;;;5126229;27;20027;-81
2022/03/11 05:06:55;;;;;;;2.83;1.73;;;3.60;95.50;;;;;;5111986;27;20028;-81
2022/03/11 05:09:21;;;;;;;1.95;0.85;;;3.60;95.30;;;;;;5151960;27;20039;-81
2022/03/11 05:11:47;;;;;;;1.55;0.52;;;3.50;95.70;;;;;;5103819;27;20067;-81
2022/03/11 05:14:12;;;;;;;0.88;0.60;;;3.50;95.40;;;;;;5147364;27;20122;-81
2022/03/11 05:16:38;;;;;;;3.45;0.77;;;3.60;95.50;;;;;;5132484;27;20047;-81
2022/03/11 05:19:03;;;;;;;0.98;0.73;;;3.50;95.50;;;;;;5105783;27;20045;-81
2022/03/11 05:21:29;;;;;;;3.20;0.82;;;3.50;95.30;;;;;;5135156;27;20027;-81
2022/03/11 05:23:55;;;;;;;1.08;0.88;;;3.50;95.90;;;;;;5115618;27;20400;-81
2022/03/11 05:26:28;;;;;;;0.88;0.85;;;3.50;95.60;;;;;;5151552;27;20353;-81
2022/03/11 05:28:55;;;;;;;0.88;0.73;;;3.40;95.80;;;;;;5152099;27;20122;-81
2022/03/11 05:31:22;;;;;;;1.70;1.30;;;3.40;95.80;;;;;;5150242;27;20211;-81
2022/03/11 05:33:48;;;;;;;0.47;0.47;;;3.40;95.70;;;;;;5096456;27;20130;-81
2022/03/11 05:36:15;;;;;;;1.08;1.02;;;3.40;96.00;;;;;;5113428;27;20104;-81
2022/03/11 05:38:40;;;;;;;1.08;0.98;;;3.40;95.60;;;;;;5106565;27;20046;-81
2022/03/11 05:41:06;;;;;;;3.22;1.10;;;3.40;95.60;;;;;;5135321;27;20069;-81
2022/03/11 05:43:32;;;;;;;1.88;1.13;;;3.40;95.40;;;;;;5153612;27;20114;-81
2022/03/11 05:45:57;;;;;;;1.30;0.60;;;3.40;95.80;;;;;;5120215;27;20096;-81
2022/03/11 05:48:23;;;;;;;0.73;0.70;;;3.40;95.80;;;;;;5134698;27;20113;-81
2022/03/11 05:50:48;;;;;;;0.32;0.32;;;3.40;95.80;;;;;;5099357;27;20033;-81
2022/03/11 05:53:15;;;;;;;0.55;0.32;;;3.40;95.70;;;;;;5122843;27;20047;-81
2022/03/11 05:55:41;;;;;;;0.57;0.57;;;3.30;95.50;;;;;;5117046;27;20042;-81
2022/03/11 05:58:06;;;;;;;0.65;0.43;;;3.30;95.50;;;;;;5120358;27;20035;-81
2022/03/11 06:00:32;;;;;;;1.10;1.00;;;3.30;95.30;;;;;;5128767;27;20095;-81
2022/03/11 06:02:58;;;;;;;3.20;1.25;;;3.30;95.40;;;;;;5098235;27;20146;-81
2022/03/11 06:05:24;;;;;;;1.17;1.08;;;3.30;95.20;;;;;;5142391;27;20053;-81
2022/03/11 06:07:49;;;;;;;0.95;0.68;;;3.30;95.30;;;;;;5140246;27;20031;-81
2022/03/11 06:10:15;;;;;;;0.60;0.55;;;3.30;95.60;;;;;;5087715;27;20035;-81
2022/03/11 06:12:40;;;;;;;0.30;0.30;;;3.30;95.50;;;;;;5116541;27;20035;-83
2022/03/11 06:15:07;;;;;;;1.08;0.98;;;3.20;95.50;;;;;;5114351;27;20078;-81
2022/03/11 06:17:33;;;;;;;1.15;0.65;;;3.20;95.50;;;;;;5111630;27;20043;-81
2022/03/11 06:19:59;;;;;;;1.17;0.52;;;3.20;95.40;;;;;;5089780;27;20042;-81
2022/03/11 06:22:24;;;;;;;1.83;1.20;;;3.20;95.40;;;;;;5099718;27;20039;-81
2022/03/11 06:24:50;;;;;;;1.75;1.05;;;3.20;95.40;;;;;;5119457;27;20035;-83
2022/03/11 06:27:16;;;;;;;0.80;0.45;;;3.20;95.40;;;;;;5123307;27;20067;-82
2022/03/11 06:29:41;;;;;;;0.63;0.30;;;3.20;95.50;;;;;;5110492;27;20062;-81
2022/03/11 06:32:07;;;;;;;2.55;0.85;;;3.20;95.70;;;;;;5100257;27;20050;-82
2022/03/11 06:34:33;;;;;;;1.40;0.55;;;3.20;95.40;;;;;;5142983;27;20122;-85
2022/03/11 06:36:59;;;;;;;1.92;1.17;;;3.20;95.60;;;;;;5115962;27;20484;-82
2022/03/11 06:39:24;;;;;;;0.95;0.70;;;3.20;95.60;;;;;;5118356;27;20979;-82
2022/03/11 06:41:50;;;;;;;0.95;0.50;;;3.20;95.40;;;;;;5129130;27;20055;-81
2022/03/11 06:44:16;;;;;;;0.88;0.77;;;3.20;95.20;;;;;;5125657;27;20039;-82
2022/03/11 06:46:42;;;;;;;3.03;1.30;;;3.20;95.40;;;;;;5122406;27;20031;-81
2022/03/11 06:49:07;;;;;;;0.82;0.63;;;3.20;95.20;;;;;;5136577;27;20042;-81
2022/03/11 06:51:33;;;;;;;1.23;1.13;;;3.30;95.30;;;;;;5096696;27;20039;-81
2022/03/11 06:53:59;;;;;;;5.47;1.25;;;3.20;95.20;;;;;;5093087;27;20126;-81
2022/03/11 06:56:24;;;;;;;0.93;0.70;;;3.30;95.10;;;;;;5101604;27;20160;-82
2022/03/11 06:58:51;;;;;;;2.38;1.10;;;3.30;95.20;;;;;;5109806;27;20069;-81
2022/03/11 07:01:18;;;;;;;1.92;1.15;;;3.30;95.50;;;;;;5103492;27;20039;-82
2022/03/11 07:03:43;;;;;;;0.70;0.47;;;3.30;95.20;;;;;;5137787;27;20054;-81
2022/03/11 07:06:09;;;;;;;0.93;0.75;;;3.30;94.90;;;;;;5105252;27;20058;-82
2022/03/11 07:08:34;;;;;;;0.88;0.50;;;3.30;95.10;;;;;;5113143;27;20035;-82
2022/03/11 07:11:00;;;;;;;0.40;0.40;;;3.30;94.70;;;;;;5115483;27;20031;-81
2022/03/11 07:13:26;;;;;;;2.55;1.50;;;3.40;95.00;;;;;;5106179;27;20488;-84
2022/03/11 07:15:52;;;;;;;0.80;0.40;;;3.40;95.00;;;;;;5088744;27;20455;-83
2022/03/11 07:18:18;;;;;;;2.60;1.23;;;3.40;95.00;;;;;;5139694;27;20130;-84
2022/03/11 07:20:43;;;;;;;1.20;0.65;;;3.50;94.90;;;;;;5088412;27;20041;-83
2022/03/11 07:23:09;;;;;;;0.77;0.47;;;3.50;94.70;;;;;;5110125;27;20039;-82
2022/03/11 07:25:36;;;;;;;3.83;1.95;;;3.50;94.50;;;;;;5103668;27;20039;-82
2022/03/11 07:28:02;;;;;;;1.95;0.90;;;3.50;94.50;;;;;;5103249;27;20404;-83
2022/03/11 07:30:27;;;;;;;2.10;1.20;;;3.60;94.40;;;;;;5101288;27;20029;-83
2022/03/11 07:32:53;;;;;;;2.08;1.85;;;3.60;94.20;;;;;;5135075;27;20567;-83
2022/03/11 07:35:19;;;;;;;0.68;0.65;;;3.70;94.20;;;;;;5096874;27;20110;-83
2022/03/11 07:37:45;;;;;;;2.63;0.95;;;3.70;94.20;;;;;;5125246;27;20031;-83
2022/03/11 07:40:11;;;;;;;1.60;1.08;;;3.70;94.00;;;;;;5087566;27;20047;-82
2022/03/11 07:42:42;;;;;;;4.25;0.70;;;3.80;93.80;;;;;;5086300;27;20043;-82
2022/03/11 07:45:12;;;;;;;0.70;0.70;;;3.70;93.80;;;;;;5142523;27;20039;-83
2022/03/11 07:47:38;;;;;;;3.58;1.42;;;3.80;93.70;;;;;;5102855;27;20035;-81
2022/03/11 07:50:04;;;;;;;2.28;1.02;;;3.80;93.50;;;;;;5089497;27;20039;-83
2022/03/11 07:52:30;;;;;;;0.95;0.50;;;3.90;93.60;;;;;;5088608;27;20067;-83
2022/03/11 07:54:56;;;;;;;2.03;1.75;;;3.90;93.30;;;;;;5091487;27;20519;-82
2022/03/11 07:57:21;;;;;;;1.02;0.82;;;4.00;93.30;;;;;;5112883;27;20050;-82
2022/03/11 07:59:47;;;;;;;0.85;0.60;;;4.00;93.10;;;;;;5094678;27;20039;-82
2022/03/11 08:02:15;;;;;;;2.80;1.10;;;4.00;93.20;;;;;;5091541;28;20038;-82
2022/03/11 08:04:40;;;;;;;3.25;1.75;;;4.10;93.40;;;;;;5098392;28;20120;-82
2022/03/11 08:07:09;;;;;;;2.25;1.25;;;4.10;93.30;;;;;;5110217;28;20044;-82
2022/03/11 08:09:35;;;;;;;1.52;1.13;;;4.20;93.40;;;;;;5124579;27;20438;-82
2022/03/11 08:12:02;;;;;;;0.73;0.63;;;4.20;93.00;;;;;;5126831;27;20556;-83
2022/03/11 08:14:27;;;;;;;1.13;1.02;;;4.30;92.90;;;;;;5109205;28;20050;-83
2022/03/11 08:16:53;;;;;;;2.67;1.10;;;4.30;93.00;;;;;;5123746;27;20043;-83
2022/03/11 08:19:19;;;;;;;2.03;1.45;;;4.40;92.90;;;;;;5141556;27;20066;-83
2022/03/11 08:21:44;;;;;;;2.22;0.93;;;4.40;92.50;;;;;;5117747;27;20498;-83
2022/03/11 08:24:10;;;;;;;1.83;0.90;;;4.50;92.40;;;;;;5098607;27;20047;-83
2022/03/11 08:26:36;;;;;;;2.22;1.10;;;4.50;91.80;;;;;;5102487;28;20057;-83
2022/03/11 08:29:01;;;;;;;1.75;1.20;;;4.60;91.70;;;;;;5108613;27;20476;-83
2022/03/11 08:31:27;;;;;;;2.00;1.02;;;4.60;91.50;;;;;;5109055;27;20503;-82
2022/03/11 08:33:52;;;;;;;3.35;1.25;;;4.60;91.60;;;;;;5086066;27;20444;-82
2022/03/11 08:36:18;;;;;;;1.38;1.00;;;4.70;91.70;;;;;;5100343;28;20469;-83
2022/03/11 08:38:44;;;;;;;3.92;1.50;;;4.80;91.50;;;;;;5134824;27;20035;-83
2022/03/11 08:41:10;;;;;;;1.48;1.38;;;4.80;91.30;;;;;;5088777;27;20454;-82
2022/03/11 08:43:38;;;;;;;4.15;1.55;;;4.80;90.90;;;;;;5111050;27;20050;-82
2022/03/11 08:46:09;;;;;;;4.15;2.03;;;4.90;90.70;;;;;;5110029;28;20039;-83
2022/03/11 08:48:35;;;;;;;3.60;1.17;;;4.90;90.40;;;;;;5098633;27;20058;-83
2022/03/11 08:51:02;;;;;;;3.15;1.27;;;5.00;89.80;;;;;;5103246;28;20364;-83
2022/03/11 08:53:27;;;;;;;3.05;1.23;;;5.00;90.00;;;;;;5101121;27;20568;-83
2022/03/11 08:55:53;;;;;;;3.50;1.08;;;5.10;90.30;;;;;;5139628;27;20144;-84
2022/03/11 08:58:19;;;;;;;1.08;0.70;;;5.10;89.80;;;;;;5102280;27;20073;-83
2022/03/11 09:00:45;;;;;;;3.33;1.05;;;5.10;90.30;;;;;;5110396;28;20035;-83
2022/03/11 09:03:11;;;;;;;1.63;0.65;;;5.10;90.30;;;;;;5108855;28;20365;-83
2022/03/11 09:05:39;;;;;;;4.85;1.65;;;5.20;90.00;;;;;;5112442;27;20050;-83
2022/03/11 09:08:07;;;;;;;2.38;1.20;;;5.20;89.80;;;;;;5107086;28;20039;-84
2022/03/11 09:10:33;;;;;;;2.08;1.08;;;5.20;88.30;;;;;;5120146;27;20031;-83
2022/03/11 09:12:59;;;;;;;4.05;0.90;;;5.30;89.00;;;;;;5126938;27;20075;-83
2022/03/11 09:15:25;;;;;;;0.95;0.45;;;5.30;87.70;;;;;;5095713;27;20504;-84
2022/03/11 09:17:50;;;;;;;2.53;0.63;;;5.30;87.60;;;;;;5147506;27;20047;-83
2022/03/11 09:20:16;;;;;;;2.97;1.63;;;5.40;87.70;;;;;;5114733;27;20035;-83
2022/03/11 09:22:42;;;;;;;2.53;0.98;;;5.40;87.80;;;;;;5124308;27;20035;-84
2022/03/11 09:25:10;;;;;;;2.65;1.30;;;5.50;88.10;;;;;;5123992;27;20042;-83
2022/03/11 09:27:36;;;;;;;2.60;1.23;;;5.50;86.90;;;;;;5108980;27;20038;-82
2022/03/11 09:30:02;;;;;;;1.92;0.63;;;5.60;86.70;;;;;;5109365;27;20597;-83
2022/03/11 09:32:28;;;;;;;2.78;1.77;;;5.60;85.90;;;;;;5116836;27;20047;-83
2022/03/11 09:34:54;;;;;;;1.17;1.08;;;5.60;85.60;;;;;;5092083;27;20057;-84
2022/03/11 09:37:20;;;;;;;3.40;1.25;;;5.70;85.90;;;;;;5093826;27;20039;-81
2022/03/11 09:51:42;;;;;;;1.52;1.33;;;5.90;83.40;;;;;;5025108;22;19938;-82
2022/03/11 09:54:10;;;;;;;5.30;1.50;;;6.00;83.30;;;;;;5099015;27;20116;-76
2022/03/11 09:56:39;;;;;;;1.67;1.38;;;6.00;83.50;;;;;;5090204;27;20031;-75
2022/03/11 09:59:06;;;;;;;2.55;1.75;;;6.10;82.10;;;;;;5116225;27;20050;-75
2022/03/11 10:01:32;;;;;;;1.77;1.02;;;6.10;82.10;;;;;;5088556;27;20053;-76
2022/03/11 10:03:58;;;;;;;2.45;0.95;;;6.20;81.40;;;;;;5090306;27;20217;-76
2022/03/11 10:06:43;;;;;;;2.35;1.48;;;6.30;80.20;;;;;;5104299;27;20039;-76
2022/03/11 10:09:30;;;;;;;1.83;1.48;;;6.30;77.90;;;;;;5096146;27;20062;-84
2022/03/11 10:11:57;;;;;;;1.30;0.93;;;6.30;76.80;;;;;;5090086;27;20462;-83
2022/03/11 10:14:32;;;;;;;0.98;0.63;;;6.40;76.50;;;;;;5089689;27;20035;-84
2022/03/11 10:16:58;;;;;;;;;;;6.50;77.50;;;;;;5100958;27;20043;-85
2022/03/11 10:19:24;;;;;;;1.02;0.77;;;6.50;75.40;;;;;;5095343;27;20387;-83
2022/03/11 10:21:51;;;;;;;0.82;0.65;;;6.50;77.50;;;;;;5107545;27;20046;-84
2022/03/11 10:24:21;;;;;;;2.70;1.35;;;6.50;77.90;;;;;;5094615;27;20125;-84
2022/03/11 10:26:52;;;;;;;2.58;0.75;;;6.60;78.50;;;;;;5079770;27;20031;-82
2022/03/11 10:29:21;;;;;;;1.45;1.10;;;6.60;78.20;;;;;;5114191;27;20693;-85
2022/03/11 10:31:50;;;;;;;2.20;1.08;;;6.70;77.30;;;;;;5108854;27;20128;-83
2022/03/11 10:34:24;;;;;;;4.47;1.45;;;6.70;76.70;;;;;;5108921;27;20122;-84
2022/03/11 10:36:56;;;;;;;2.10;1.17;;;6.70;76.90;;;;;;5107156;27;20039;-84
2022/03/11 10:39:32;;;;;;;2.70;1.27;;;6.80;76.60;;;;;;5111937;27;20526;-83
2022/03/11 10:42:00;;;;;;;2.17;0.82;;;6.90;76.70;;;;;;5089447;27;20071;-82
2022/03/11 10:44:28;;;;;;;2.70;1.13;;;6.90;77.80;;;;;;5108689;27;20039;-82
2022/03/11 10:46:55;;;;;;;4.00;1.48;;;7.00;76.50;;;;;;5107382;27;20032;-83
2022/03/11 10:49:33;;;;;;;3.42;0.73;;;7.00;77.60;;;;;;5080814;27;20031;-75
2022/03/11 10:52:01;;;;;;;1.35;0.93;;;7.00;77.50;;;;;;5101407;27;20360;-75
2022/03/11 10:54:28;;;;;;;2.63;1.13;;;7.00;77.40;;;;;;5091492;27;20050;-75
2022/03/11 10:56:55;;;;;;;2.72;1.40;;;7.10;76.50;;;;;;5103820;27;20395;-76
2022/03/11 10:59:27;;;;;;;2.92;1.48;;;7.10;76.00;;;;;;5105993;27;20532;-75
2022/03/11 11:01:57;;;;;;;2.03;0.70;;;7.20;75.00;;;;;;5087235;27;20043;-75
2022/03/11 11:04:24;;;;;;;1.27;0.90;;;7.10;74.70;;;;;;5100723;27;20043;-75
2022/03/11 11:06:51;;;;;;;1.55;0.60;;;7.20;74.10;;;;;;5100971;27;20027;-75
2022/03/11 11:09:18;;;;;;;3.83;2.40;;;7.20;74.80;;;;;;5093205;27;20498;-75
2022/03/11 11:11:44;;;;;;;0.80;0.70;;;7.20;74.10;;;;;;5091193;27;20039;-75
2022/03/11 11:14:11;;;;;;;3.47;1.25;;;7.30;73.90;;;;;;5092037;27;20120;-75
2022/03/11 11:16:40;;;;;;;1.77;1.40;;;7.30;73.70;;;;;;5105579;27;20136;-75
2022/03/11 11:19:14;;;;;;;1.35;1.05;;;7.40;74.00;;;;;;5094978;27;20564;-76
2022/03/11 11:21:47;;;;;;;4.75;1.23;;;7.40;73.50;;;;;;5100133;27;20092;-74
2022/03/11 11:24:18;;;;;;;2.72;1.55;;;7.50;74.00;;;;;;5110099;27;20037;-75
2022/03/11 11:26:53;;;;;;;1.23;0.40;;;7.50;72.10;;;;;;5098607;27;20430;-74
2022/03/11 11:29:29;;;;;;;1.42;0.98;;;7.50;72.80;;;;;;5092954;27;20031;-75
2022/03/11 11:31:55;;;;;;;1.08;0.90;;;7.60;73.90;;;;;;5108552;27;20144;-75
2022/03/11 11:34:32;;;;;;;3.28;1.48;;;7.60;73.20;;;;;;5107384;27;20027;-75
2022/03/11 11:36:59;;;;;;;2.17;0.73;;;7.60;72.10;;;;;;5097446;27;21877;-75
2022/03/11 11:39:36;;;;;;;2.40;1.05;;;7.60;72.30;;;;;;5088285;28;20035;-75
2022/03/11 11:42:08;;;;;;;0.80;0.50;;;7.60;72.90;;;;;;5088851;27;20489;-75
2022/03/11 11:44:38;;;;;;;3.10;1.45;;;7.70;74.30;;;;;;5112059;27;20061;-76
2022/03/11 11:47:23;;;;;;;1.90;0.88;;;7.70;73.70;;;;;;5093473;27;20788;-76
2022/03/11 11:49:52;;;;;;;2.65;1.05;;;7.70;72.30;;;;;;5109962;28;20508;-76
2022/03/11 11:52:35;;;;;;;2.00;1.15;;;7.70;72.50;;;;;;5111920;27;20193;-75
2022/03/11 11:55:27;;;;;;;0.55;0.43;;;7.80;71.70;;;;;;5093836;27;20035;-74
2022/03/11 11:57:53;;;;;;;2.03;0.85;;;7.80;71.70;;;;;;5083838;27;21579;-75
2022/03/11 12:00:37;;;;;;;1.85;1.08;;;7.90;71.30;;;;;;5091783;27;20480;-75
2022/03/11 12:03:05;;;;;;;3.33;1.42;;;8.00;71.50;;;;;;5079334;27;20131;-75
2022/03/11 12:05:44;;;;;;;2.15;1.27;;;8.10;70.90;;;;;;5092644;27;20122;-74
2022/03/11 12:08:31;;;;;;;1.33;0.70;;;8.20;70.60;;;;;;5106089;27;20035;-75
2022/03/11 12:10:58;;;;;;;1.15;0.88;;;8.10;71.50;;;;;;5098482;28;20320;-75
2022/03/11 12:13:37;;;;;;;2.75;1.58;;;8.20;71.80;;;;;;5094100;27;20035;-75
2022/03/11 12:16:15;;;;;;;1.67;0.95;;;8.20;69.30;;;;;;5129979;27;20043;-75
2022/03/11 12:18:45;;;;;;;2.35;1.30;;;8.30;70.80;;;;;;5090213;27;20503;-75
2022/03/11 12:21:41;;;;;;;2.08;1.30;;;8.30;70.00;;;;;;5089656;27;20027;-75
2022/03/11 12:24:39;;;;;;;5.63;1.88;;;8.40;69.80;;;;;;5137119;27;20479;-75
2022/03/11 12:27:05;;;;;;;1.67;0.73;;;8.40;67.80;;;;;;5078838;28;20039;-74
2022/03/11 12:29:34;;;;;;;1.45;0.85;;;8.40;68.60;;;;;;5099846;28;20032;-75
2022/03/11 12:32:01;;;;;;;1.83;1.25;;;8.50;68.40;;;;;;5089797;27;20142;-74
2022/03/11 12:34:28;;;;;;;2.13;1.52;;;8.50;68.40;;;;;;5103452;28;20240;-74
2022/03/11 12:36:54;;;;;;;3.47;1.25;;;8.50;68.90;;;;;;5095568;28;20436;-74
2022/03/11 12:39:26;;;;;;;4.07;1.63;;;8.60;69.00;;;;;;5106268;28;20130;-75
2022/03/11 12:41:52;;;;;;;1.77;1.02;;;8.60;69.50;;;;;;5098018;28;20119;-76
2022/03/11 12:44:18;;;;;;;1.67;0.90;;;8.70;70.40;;;;;;5108163;28;20517;-75
2022/03/11 12:46:43;;;;;;;3.10;0.55;;;8.80;68.70;;;;;;5087346;28;20042;-74
2022/03/11 12:49:09;;;;;;;2.33;1.10;;;8.80;69.20;;;;;;5095326;27;20061;-75
2022/03/11 12:51:34;;;;;;;1.10;0.82;;;8.80;69.10;;;;;;5123304;27;20189;-75
2022/03/11 12:54:14;;;;;;;0.75;0.75;;;8.90;68.10;;;;;;5121315;27;20039;-75
2022/03/11 12:56:40;;;;;;;1.15;0.45;;;9.00;67.90;;;;;;5085536;27;20035;-74
2022/03/11 12:59:05;;;;;;;4.22;1.05;;;9.00;67.50;;;;;;5088493;27;20039;-77
2022/03/11 13:01:31;;;;;;;0.85;0.43;;;9.00;66.90;;;;;;5115168;27;20530;-77
2022/03/11 13:03:57;;;;;;;1.98;0.90;;;9.00;65.80;;;;;;5108086;27;20128;-81
2022/03/11 13:06:22;;;;;;;3.05;1.17;;;9.10;65.80;;;;;;5120388;27;20047;-79
2022/03/11 13:08:48;;;;;;;1.38;0.77;;;9.10;66.50;;;;;;5093758;27;20437;-82
2022/03/11 13:11:14;;;;;;;2.72;0.77;;;9.10;66.30;;;;;;5098265;27;20035;-75